| time (UTC) | temp F | wind direction | speed knots | gust knots | rain 1hr in | rain 24hr in | rain mn in | humidity % | barometer mb |
| 20260902014535 | 71 | 210 | 0.0 | 0.9 | 0.00 | 0.31 | 0.30 | 96 | 1015.4 |
| 20260902013033 | 71 | 201 | 0.0 | 1.7 | 0.00 | 0.31 | 0.30 | 95 | 1015.3 |
| 20260902011527 | 71 | 201 | 0.0 | 1.7 | 0.00 | 0.31 | 0.30 | 96 | 1015.1 |
| 20260902010036 | 72 | 201 | 0.0 | 1.7 | 0.00 | 0.31 | 0.30 | 95 | 1015.4 |
| 20260902004533 | 72 | 201 | 0.0 | 1.7 | 0.00 | 0.31 | 0.30 | 95 | 1015.1 |
| 20260902003034 | 72 | 352 | 0.0 | 1.7 | 0.01 | 0.31 | 0.30 | 95 | 1015.1 |
| 20260902001533 | 72 | 206 | 0.0 | 1.7 | 0.11 | 0.31 | 0.30 | 95 | 1015.1 |
| 20260902000027 | 72 | 95 | 0.0 | 2.6 | 0.18 | 0.31 | 0.30 | 93 | 1015.4 |
| 20260901234554 | 72 | 55 | 1.7 | 4.3 | 0.19 | 0.31 | 0.30 | 93 | 1015.2 |
| 20260901233028 | 73 | 352 | 2.6 | 4.3 | 0.28 | 0.30 | 0.29 | 92 | 1015.5 |
| 20260901231545 | 74 | 146 | 0.9 | 3.5 | 0.19 | 0.20 | 0.19 | 89 | 1015.6 |
| 20260901230043 | 75 | 200 | 1.7 | 2.6 | 0.12 | 0.13 | 0.12 | 90 | 1013.6 |
| 20260901224530 | 77 | 200 | 2.6 | 5.2 | 0.11 | 0.12 | 0.11 | 84 | 1013.8 |
| 20260901223035 | 83 | 184 | 0.0 | 4.3 | 0.01 | 0.02 | 0.01 | 79 | 1013.5 |
| 20260901221535 | 86 | 194 | 0.0 | 1.7 | 0.00 | 0.01 | 0.00 | 75 | 1013.6 |
| 20260901220036 | 87 | 194 | 0.0 | 0.9 | 0.00 | 0.01 | 0.00 | 74 | 1013.0 |
| 20260901214531 | 88 | 194 | 0.9 | 0.9 | 0.00 | 0.01 | 0.00 | 71 | 1013.0 |
| 20260901213023 | 88 | 194 | 0.0 | 1.7 | 0.00 | 0.01 | 0.00 | 72 | 1013.3 |
| 20260901211536 | 88 | 194 | 0.0 | 3.5 | 0.00 | 0.01 | 0.00 | 69 | 1013.5 |
| 20260901210008 | 89 | 211 | 1.7 | 3.5 | 0.00 | 0.01 | 0.00 | 68 | 1013.2 |
| 20260901204517 | 89 | 205 | 1.7 | 3.5 | 0.00 | 0.01 | 0.00 | 70 | 1013.3 |
| 20260901203025 | 88 | 183 | 2.6 | 4.3 | 0.00 | 0.01 | 0.00 | 69 | 1013.5 |
| 20260901201526 | 89 | 192 | 0.9 | 2.6 | 0.00 | 0.01 | 0.00 | 69 | 1013.7 |
| 20260901200020 | 89 | 208 | 0.9 | 4.3 | 0.00 | 0.01 | 0.00 | 70 | 1013.7 |
| 20260901194511 | 88 | 182 | 2.6 | 4.3 | 0.00 | 0.01 | 0.00 | 71 | 1013.9 |
| 20260901193018 | 88 | 175 | 1.7 | 4.3 | 0.00 | 0.01 | 0.00 | 72 | 1014.0 |
| 20260901191530 | 87 | 200 | 1.7 | 5.2 | 0.00 | 0.02 | 0.00 | 71 | 1014.0 |
| 20260901190034 | 88 | 208 | 1.7 | 3.5 | 0.00 | 0.03 | 0.00 | 71 | 1014.2 |
| 20260901184508 | 87 | 199 | 0.9 | 5.2 | 0.00 | 0.03 | 0.00 | 72 | 1014.3 |
| 20260901183032 | 87 | 190 | 1.7 | 5.2 | 0.00 | 0.03 | 0.00 | 72 | 1014.2 |
| 20260901181523 | 86 | 187 | 1.7 | 4.3 | 0.00 | 0.03 | 0.00 | 74 | 1014.2 |
| 20260901180028 | 85 | 213 | 2.6 | 4.3 | 0.00 | 0.03 | 0.00 | 75 | 1014.7 |
| 20260901174530 | 84 | 217 | 0.9 | 1.7 | 0.00 | 0.03 | 0.00 | 77 | 1014.6 |
| 20260901173010 | 83 | 204 | 1.7 | 3.5 | 0.00 | 0.03 | 0.00 | 78 | 1014.6 |
| 20260901171516 | 83 | 196 | 1.7 | 4.3 | 0.00 | 0.03 | 0.00 | 79 | 1014.8 |
| 20260901170025 | 82 | 196 | 0.9 | 3.5 | 0.00 | 0.03 | 0.00 | 80 | 1014.8 |
| 20260901164531 | 82 | 199 | 0.9 | 1.7 | 0.00 | 0.03 | 0.00 | 81 | 1015.1 |
| 20260901163032 | 81 | 207 | 1.7 | 2.6 | 0.00 | 0.03 | 0.00 | 84 | 1015.3 |
| 20260901161515 | 80 | 200 | 1.7 | 2.6 | 0.00 | 0.03 | 0.00 | 85 | 1015.4 |
| 20260901160022 | 79 | 200 | 0.9 | 1.7 | 0.00 | 0.03 | 0.00 | 87 | 1015.6 |
| 20260901154526 | 78 | 200 | 0.9 | 1.7 | 0.00 | 0.03 | 0.00 | 88 | 1015.6 |
| 20260901153039 | 78 | 196 | 0.9 | 1.7 | 0.00 | 0.03 | 0.00 | 89 | 1015.7 |
| 20260901151533 | 77 | 209 | 1.7 | 2.6 | 0.00 | 0.03 | 0.00 | 89 | 1015.6 |
| 20260901150017 | 77 | 191 | 1.7 | 2.6 | 0.00 | 0.03 | 0.00 | 90 | 1015.9 |
| 20260901144535 | 76 | 203 | 0.9 | 1.7 | 0.00 | 0.03 | 0.00 | 90 | 1015.9 |
| 20260901143031 | 76 | 203 | 0.9 | 1.7 | 0.00 | 0.03 | 0.00 | 89 | 1016.0 |
| 20260901141536 | 76 | 185 | 0.9 | 2.6 | 0.00 | 0.03 | 0.00 | 88 | 1015.7 |
| 20260901140017 | 76 | 194 | 1.7 | 3.5 | 0.00 | 0.03 | 0.00 | 88 | 1015.6 |
| 20260901134527 | 76 | 200 | 2.6 | 3.5 | 0.00 | 0.03 | 0.00 | 90 | 1015.8 |
| 20260901133038 | 75 | 197 | 0.9 | 2.6 | 0.00 | 0.03 | 0.00 | 93 | 1015.8 |
| 20260901131534 | 73 | 192 | 1.7 | 2.6 | 0.00 | 0.03 | 0.00 | 96 | 1015.8 |
| 20260901130033 | 72 | 213 | 0.9 | 1.7 | 0.00 | 0.03 | 0.00 | 97 | 1016.2 |
| 20260901124531 | 72 | 96 | 0.0 | 0.9 | 0.00 | 0.03 | 0.00 | 97 | 1016.4 |
| 20260901123028 | 71 | 96 | 0.0 | 0.0 | 0.00 | 0.03 | 0.00 | 97 | 1016.2 |
| 20260901121529 | 71 | 350 | 0.0 | 1.7 | 0.00 | 0.03 | 0.00 | 97 | 1016.5 |
| 20260901120003 | 71 | 352 | 0.0 | 1.7 | 0.00 | 0.03 | 0.00 | 97 | 1016.0 |
| 20260901114503 | 70 | 182 | 0.0 | 0.0 | 0.00 | 0.03 | 0.00 | 97 | 1015.7 |
| 20260901113004 | 69 | 182 | 0.0 | 0.0 | 0.00 | 0.03 | 0.00 | 97 | 1015.8 |
| 20260901111504 | 68 | 182 | 0.0 | 0.0 | 0.00 | 0.03 | 0.00 | 97 | 1016.0 |
| 20260901110007 | 68 | 182 | 0.0 | 0.0 | 0.00 | 0.03 | 0.00 | 97 | 1016.1 |
| 20260901104503 | 68 | 182 | 0.0 | 0.0 | 0.00 | 0.03 | 0.00 | 97 | 1016.1 |
| 20260901103003 | 68 | 182 | 0.0 | 0.0 | 0.00 | 0.03 | 0.00 | 97 | 1016.3 |
| 20260901101503 | 68 | 182 | 0.0 | 0.0 | 0.00 | 0.03 | 0.00 | 97 | 1016.1 |
| 20260901100003 | 68 | 182 | 0.0 | 0.0 | 0.00 | 0.03 | 0.00 | 97 | 1016.1 |
| 20260901094506 | 68 | 182 | 0.0 | 0.0 | 0.00 | 0.03 | 0.00 | 96 | 1016.1 |
| 20260901093004 | 68 | 182 | 0.0 | 0.0 | 0.00 | 0.03 | 0.00 | 96 | 1016.2 |
| 20260901091503 | 68 | 182 | 0.0 | 0.0 | 0.00 | 0.03 | 0.00 | 96 | 1016.3 |
| 20260901090013 | 68 | 182 | 0.0 | 0.0 | 0.00 | 0.03 | 0.00 | 96 | 1016.2 |
| 20260901084505 | 68 | 182 | 0.0 | 0.0 | 0.00 | 0.03 | 0.00 | 96 | 1016.3 |
| 20260901083008 | 69 | 182 | 0.0 | 0.0 | 0.00 | 0.03 | 0.00 | 96 | 1016.4 |
| 20260901081516 | 68 | 182 | 0.0 | 0.0 | 0.00 | 0.03 | 0.00 | 96 | 1016.4 |
| 20260901080005 | 68 | 182 | 0.0 | 0.0 | 0.00 | 0.03 | 0.00 | 96 | 1016.5 |
| 20260901074507 | 68 | 182 | 0.0 | 0.0 | 0.00 | 0.03 | 0.00 | 96 | 1016.7 |
| 20260901073022 | 68 | 182 | 0.0 | 0.0 | 0.00 | 0.03 | 0.00 | 96 | 1016.7 |
| 20260901071509 | 69 | 182 | 0.0 | 0.0 | 0.00 | 0.03 | 0.00 | 96 | 1016.6 |
| 20260901070023 | 69 | 182 | 0.0 | 0.0 | 0.00 | 0.03 | 0.00 | 96 | 1016.6 |
| 20260901064511 | 69 | 182 | 0.0 | 0.0 | 0.00 | 0.03 | 0.00 | 96 | 1016.7 |
| 20260901063011 | 69 | 182 | 0.0 | 0.0 | 0.00 | 0.03 | 0.00 | 96 | 1016.9 |
| 20260901061511 | 69 | 182 | 0.0 | 0.0 | 0.00 | 0.03 | 0.00 | 96 | 1017.0 |
| 20260901060011 | 69 | 182 | 0.0 | 0.0 | 0.00 | 0.03 | 0.00 | 95 | 1017.3 |
| 20260901054513 | 69 | 182 | 0.0 | 0.0 | 0.00 | 0.03 | 0.00 | 96 | 1017.3 |
| 20260901053011 | 69 | 182 | 0.0 | 0.0 | 0.00 | 0.03 | 0.00 | 96 | 1017.4 |
| 20260901051513 | 69 | 182 | 0.0 | 0.0 | 0.00 | 0.03 | 0.00 | 96 | 1017.5 |
| 20260901050018 | 69 | 182 | 0.0 | 0.0 | 0.00 | 0.03 | 0.00 | 95 | 1017.7 |
| 20260901044516 | 70 | 182 | 0.0 | 0.0 | 0.00 | 0.03 | 0.00 | 95 | 1017.5 |
| 20260901043018 | 69 | 182 | 0.0 | 0.0 | 0.00 | 0.03 | 0.00 | 95 | 1017.4 |
| 20260901041515 | 70 | 182 | 0.0 | 0.0 | 0.01 | 0.03 | 0.00 | 95 | 1017.5 |
| 20260901040020 | 70 | 182 | 0.0 | 0.0 | 0.01 | 0.03 | 0.00 | 94 | 1017.8 |
| 20260901034522 | 70 | 182 | 0.0 | 0.0 | 0.01 | 0.03 | 0.03 | 94 | 1017.9 |
| 20260901033034 | 70 | 182 | 0.0 | 0.0 | 0.01 | 0.03 | 0.03 | 94 | 1017.8 |
| 20260901031520 | 70 | 182 | 0.0 | 0.0 | 0.00 | 0.02 | 0.02 | 93 | 1018.0 |
| 20260901030015 | 70 | 182 | 0.0 | 0.0 | 0.00 | 0.02 | 0.02 | 94 | 1018.3 |
| 20260901024526 | 70 | 182 | 0.0 | 0.0 | 0.00 | 0.02 | 0.02 | 94 | 1018.3 |
| 20260901023028 | 70 | 182 | 0.0 | 0.0 | 0.00 | 0.02 | 0.02 | 94 | 1018.3 |
| 20260901021522 | 69 | 182 | 0.0 | 0.0 | 0.00 | 0.02 | 0.02 | 93 | 1018.3 |
| 20260901020028 | 69 | 182 | 0.0 | 0.0 | 0.00 | 0.02 | 0.02 | 93 | 1018.3 |